Time;durP1;ratioP1;P1;durP2;ratioP2;P2;SDS_P1;SDS_P2;PMS_P1;PMS_P2;Temp;Humidity;BMP_temperature;BMP_pressure;BME280_temperature;BME280_humidity;BME280_pressure;Samples;Min_cycle;Max_cycle;Signal;HPM_P1;HPM_P2
2021/04/04 00:00:24;;;;;;;11.13;5.00;;;2.60;99.90;;;;;;5059134;28;20446;-76
2021/04/04 00:02:52;;;;;;;6.17;4.43;;;2.60;99.90;;;;;;5059720;28;20435;-76
2021/04/04 00:05:20;;;;;;;12.17;4.83;;;2.70;99.90;;;;;;5042548;28;20458;-76
2021/04/04 00:07:48;;;;;;;6.10;3.53;;;2.70;99.90;;;;;;5040707;28;20437;-76
2021/04/04 00:10:18;;;;;;;9.67;3.83;;;2.80;99.90;;;;;;5042539;28;20436;-76
2021/04/04 00:12:47;;;;;;;6.80;4.43;;;2.80;99.90;;;;;;5059567;28;20478;-75
2021/04/04 00:15:17;;;;;;;5.20;4.17;;;2.90;99.90;;;;;;5058840;28;20445;-76
2021/04/04 00:17:46;;;;;;;5.40;3.80;;;2.90;99.90;;;;;;5042968;28;20439;-75
2021/04/04 00:20:15;;;;;;;5.10;3.80;;;2.90;99.90;;;;;;5042602;28;20442;-75
2021/04/04 00:22:47;;;;;;;16.17;5.37;;;2.80;99.90;;;;;;5041901;28;20501;-76
2021/04/04 00:25:19;;;;;;;15.07;5.47;;;2.70;99.90;;;;;;5041803;28;20465;-76
2021/04/04 00:27:46;;;;;;;8.40;5.83;;;2.70;99.90;;;;;;5026313;28;20438;-75
2021/04/04 00:30:17;;;;;;;8.87;5.67;;;2.60;99.90;;;;;;5057614;28;20455;-79
2021/04/04 00:32:45;;;;;;;5.20;4.47;;;2.60;99.90;;;;;;5038706;28;20443;-77
2021/04/04 00:35:17;;;;;;;7.73;5.10;;;2.70;99.90;;;;;;5055442;28;20439;-76
2021/04/04 00:37:45;;;;;;;6.90;4.10;;;2.70;99.90;;;;;;5055150;28;20429;-77
2021/04/04 00:40:14;;;;;;;6.77;4.97;;;2.70;99.90;;;;;;5055462;28;20433;-77
2021/04/04 00:45:41;;;;;;;9.40;4.80;;;2.70;99.90;;;;;;5055629;28;20467;-77
2021/04/04 00:48:10;;;;;;;6.60;4.00;;;2.70;99.90;;;;;;5054426;28;20454;-76
2021/04/04 00:50:39;;;;;;;9.30;4.80;;;2.70;99.90;;;;;;5057248;28;20447;-75
2021/04/04 00:53:08;;;;;;;9.87;5.23;;;2.70;99.90;;;;;;5046446;28;20509;-77
2021/04/04 00:55:37;;;;;;;7.43;4.80;;;2.70;99.90;;;;;;5039249;28;20435;-77
2021/04/04 00:58:06;;;;;;;5.97;4.70;;;2.80;99.90;;;;;;5022422;28;20442;-75
2021/04/04 01:00:35;;;;;;;5.87;4.47;;;2.70;99.90;;;;;;5023111;28;20541;-75
2021/04/04 01:03:04;;;;;;;9.07;5.20;;;2.70;99.90;;;;;;5040928;28;20484;-80
2021/04/04 01:05:38;;;;;;;6.70;5.03;;;2.60;99.90;;;;;;5023173;28;20469;-80
2021/04/04 01:08:06;;;;;;;6.50;4.37;;;2.50;99.90;;;;;;5039700;28;20437;-77
2021/04/04 01:10:37;;;;;;;10.40;4.80;;;2.50;99.90;;;;;;5023105;28;20941;-78
2021/04/04 01:13:18;;;;;;;5.80;4.53;;;2.50;99.90;;;;;;5057508;28;20417;-79
2021/04/04 01:15:53;;;;;;;4.83;4.43;;;2.60;99.90;;;;;;5023143;28;20470;-77
2021/04/04 01:18:29;;;;;;;9.17;5.67;;;2.50;99.90;;;;;;5040070;28;20430;-77
2021/04/04 01:21:03;;;;;;;5.80;4.57;;;2.50;99.90;;;;;;5040331;28;20446;-79
2021/04/04 01:24:08;;;;;;;5.30;4.70;;;2.30;99.90;;;;;;5040114;28;21044;-75
2021/04/04 01:26:59;;;;;;;5.80;4.33;;;2.20;99.90;;;;;;5024147;28;20866;-77
2021/04/04 01:29:29;;;;;;;7.23;4.10;;;2.10;99.90;;;;;;5040342;28;20992;-79
2021/04/04 01:31:57;;;;;;;6.50;5.20;;;2.10;99.90;;;;;;5023317;28;20466;-77
2021/04/04 01:34:29;;;;;;;7.50;4.63;;;2.10;99.90;;;;;;5061279;28;20560;-77
2021/04/04 01:37:03;;;;;;;6.47;4.70;;;2.20;99.90;;;;;;5043554;28;20484;-78
2021/04/04 01:39:37;;;;;;;4.07;3.63;;;2.20;99.90;;;;;;5043447;28;20445;-77
2021/04/04 01:42:06;;;;;;;6.93;4.53;;;2.10;99.90;;;;;;5043438;28;20814;-80
2021/04/04 01:44:36;;;;;;;5.70;4.07;;;2.00;99.90;;;;;;5027116;28;20439;-77
2021/04/04 01:47:04;;;;;;;8.50;3.90;;;2.00;99.90;;;;;;5061454;28;20584;-77
2021/04/04 01:49:34;;;;;;;6.30;4.03;;;2.10;99.90;;;;;;5042578;28;20494;-77
2021/04/04 01:52:03;;;;;;;6.23;4.40;;;2.10;99.90;;;;;;5060229;28;20484;-78
2021/04/04 01:54:31;;;;;;;7.63;4.87;;;2.10;99.90;;;;;;5042828;28;20443;-76
2021/04/04 01:57:00;;;;;;;8.67;4.53;;;2.20;99.90;;;;;;5060917;28;20476;-80
2021/04/04 01:59:32;;;;;;;7.80;4.20;;;2.20;99.90;;;;;;5043314;28;20430;-77
2021/04/04 02:02:03;;;;;;;5.27;3.73;;;2.30;99.90;;;;;;5042512;28;20494;-77
2021/04/04 02:04:31;;;;;;;8.03;4.37;;;2.30;99.90;;;;;;5026316;28;20452;-77
2021/04/04 02:06:59;;;;;;;6.87;4.00;;;2.20;99.90;;;;;;5026404;28;20462;-77
2021/04/04 02:09:29;;;;;;;6.43;3.70;;;2.20;99.90;;;;;;5061620;28;20445;-76
2021/04/04 02:11:59;;;;;;;6.40;4.90;;;2.10;99.90;;;;;;5026622;28;20447;-75
2021/04/04 02:14:28;;;;;;;6.13;4.07;;;2.10;99.90;;;;;;5061250;28;20841;-77
2021/04/04 02:16:57;;;;;;;4.87;4.03;;;2.00;99.90;;;;;;5060824;28;20466;-76
2021/04/04 02:19:27;;;;;;;6.30;4.70;;;2.00;99.90;;;;;;5056129;28;20458;-77
2021/04/04 02:21:57;;;;;;;11.83;4.63;;;2.00;99.90;;;;;;5065839;28;20448;-80
2021/04/04 02:24:28;;;;;;;7.00;4.00;;;2.00;99.90;;;;;;5026634;28;20506;-77
2021/04/04 02:26:56;;;;;;;8.00;4.87;;;2.00;99.90;;;;;;5042061;28;20462;-77
2021/04/04 02:29:24;;;;;;;6.03;4.00;;;2.00;99.90;;;;;;5025578;28;20473;-77
2021/04/04 02:31:56;;;;;;;5.40;4.80;;;2.10;99.90;;;;;;5045211;28;20969;-76
2021/04/04 02:34:29;;;;;;;7.40;4.43;;;2.10;99.90;;;;;;5029859;28;20442;-76
2021/04/04 02:40:18;;;;;;;6.53;4.37;;;2.10;99.90;;;;;;5029553;28;20434;-78
2021/04/04 02:42:48;;;;;;;7.07;5.23;;;2.10;99.90;;;;;;5047039;28;20446;-76
2021/04/04 02:45:19;;;;;;;8.20;4.97;;;2.10;99.90;;;;;;5046167;28;20430;-76
2021/04/04 02:47:55;;;;;;;4.30;3.87;;;2.00;99.90;;;;;;5046830;28;20434;-76
2021/04/04 02:50:27;;;;;;;6.10;4.87;;;1.90;99.90;;;;;;5047639;28;20438;-76
2021/04/04 02:53:00;;;;;;;6.50;4.27;;;1.80;99.90;;;;;;5047718;28;20537;-79
2021/04/04 02:55:31;;;;;;;6.47;4.10;;;1.80;99.90;;;;;;5064843;28;20441;-76
2021/04/04 02:58:03;;;;;;;5.13;3.97;;;1.80;99.90;;;;;;5065048;28;20435;-76
2021/04/04 03:00:35;;;;;;;4.83;4.33;;;1.80;99.90;;;;;;5032152;28;20447;-77
2021/04/04 03:03:06;;;;;;;7.70;4.37;;;1.80;99.90;;;;;;5048589;28;20439;-76
2021/04/04 03:05:35;;;;;;;7.30;4.50;;;1.80;99.90;;;;;;5031158;28;20832;-78
2021/04/04 03:08:06;;;;;;;6.00;4.70;;;1.70;99.90;;;;;;5046583;28;20438;-76
2021/04/04 03:10:35;;;;;;;7.13;4.47;;;1.70;99.90;;;;;;5034284;28;20646;-75
2021/04/04 03:13:04;;;;;;;6.90;4.50;;;1.60;99.90;;;;;;5056711;28;20439;-77
2021/04/04 03:15:34;;;;;;;10.40;4.57;;;1.50;99.90;;;;;;5040227;28;20434;-78
2021/04/04 03:18:02;;;;;;;6.03;4.63;;;1.50;99.90;;;;;;5043136;28;20447;-76
2021/04/04 03:20:31;;;;;;;6.63;4.70;;;1.40;99.90;;;;;;5042429;28;20470;-76
2021/04/04 03:25:55;;;;;;;7.17;5.10;;;1.20;99.90;;;;;;5042734;28;20465;-77
2021/04/04 03:28:24;;;;;;;5.03;4.10;;;1.20;99.90;;;;;;5042556;28;20439;-76
2021/04/04 03:30:53;;;;;;;8.23;4.80;;;1.10;99.90;;;;;;5041740;28;20501;-77
2021/04/04 03:33:23;;;;;;;6.40;4.67;;;1.20;99.90;;;;;;5042247;28;20458;-77
2021/04/04 03:35:53;;;;;;;6.30;3.80;;;1.10;99.90;;;;;;5058794;28;20434;-77
2021/04/04 03:38:25;;;;;;;7.00;4.50;;;1.00;99.90;;;;;;5042274;28;20488;-76
2021/04/04 03:40:54;;;;;;;5.00;4.30;;;0.90;99.90;;;;;;5074894;28;20429;-77
2021/04/04 03:43:48;;;;;;;5.40;3.73;;;0.80;99.90;;;;;;5074823;28;20434;-78
2021/04/04 03:46:19;;;;;;;5.10;4.60;;;0.80;99.90;;;;;;5056760;28;20516;-78
2021/04/04 03:48:56;;;;;;;8.60;5.27;;;0.80;99.90;;;;;;5034048;28;20518;-77
2021/04/04 03:51:25;;;;;;;8.70;4.60;;;0.70;99.90;;;;;;5061208;28;20961;-77
2021/04/04 03:53:57;;;;;;;7.20;4.47;;;0.70;99.90;;;;;;5026427;28;20485;-78
2021/04/04 03:56:29;;;;;;;7.27;5.47;;;0.70;99.90;;;;;;5025206;28;20772;-77
2021/04/04 03:59:02;;;;;;;6.63;5.20;;;0.60;99.90;;;;;;5041367;28;20544;-76
2021/04/04 04:01:31;;;;;;;7.43;4.17;;;0.50;99.90;;;;;;5040435;28;20483;-78
2021/04/04 04:04:02;;;;;;;7.70;4.93;;;0.40;99.90;;;;;;5042258;28;20423;-76
2021/04/04 04:06:33;;;;;;;10.70;5.60;;;0.40;99.90;;;;;;5025240;28;20466;-77
2021/04/04 04:09:03;;;;;;;8.17;4.23;;;0.30;99.90;;;;;;5041630;28;20429;-78
2021/04/04 04:11:32;;;;;;;5.93;4.37;;;0.30;99.90;;;;;;5060016;28;20502;-77
2021/04/04 04:14:02;;;;;;;7.90;4.80;;;0.30;99.90;;;;;;5041898;28;20934;-77
2021/04/04 04:16:30;;;;;;;10.73;5.13;;;0.20;99.90;;;;;;5024282;28;20481;-77
2021/04/04 04:18:58;;;;;;;9.20;5.20;;;0.20;99.90;;;;;;5059582;28;20417;-77
2021/04/04 04:21:26;;;;;;;5.97;4.23;;;0.30;99.90;;;;;;5025288;28;20446;-78
2021/04/04 04:23:54;;;;;;;6.20;4.77;;;0.20;99.90;;;;;;5041737;28;20431;-78
2021/04/04 04:26:23;;;;;;;7.20;4.87;;;0.20;99.90;;;;;;5025419;28;20473;-78
2021/04/04 04:28:52;;;;;;;8.73;5.23;;;0.10;99.90;;;;;;5041575;28;20469;-77
2021/04/04 04:31:24;;;;;;;6.83;4.50;;;0.00;99.90;;;;;;5021299;28;20506;-78
2021/04/04 04:33:55;;;;;;;6.97;4.13;;;0.00;99.90;;;;;;5005468;28;20547;-78
2021/04/04 04:36:24;;;;;;;5.67;4.50;;;0.00;99.90;;;;;;5038734;28;20482;-80
2021/04/04 04:38:52;;;;;;;6.70;6.10;;;0.00;99.90;;;;;;5021161;28;20439;-77
2021/04/04 04:41:21;;;;;;;7.80;4.80;;;0.00;99.90;;;;;;5037780;28;20949;-80
2021/04/04 04:43:56;;;;;;;6.00;4.00;;;-0.10;99.90;;;;;;5038270;28;20497;-78
2021/04/04 04:46:25;;;;;;;7.87;5.73;;;-0.10;99.90;;;;;;5031068;28;20477;-79
2021/04/04 04:48:53;;;;;;;6.40;4.07;;;-0.10;99.90;;;;;;5024455;28;20446;-78
2021/04/04 04:51:22;;;;;;;7.53;4.70;;;-0.20;99.90;;;;;;5040688;28;20922;-77
2021/04/04 04:53:50;;;;;;;8.50;5.00;;;-0.20;99.90;;;;;;5053823;28;20524;-78
2021/04/04 04:56:19;;;;;;;7.30;5.13;;;-0.20;99.90;;;;;;5041267;28;20423;-77
2021/04/04 04:58:47;;;;;;;5.93;4.27;;;-0.20;99.90;;;;;;5040259;28;20529;-78
2021/04/04 05:01:18;;;;;;;8.90;4.40;;;-0.20;99.90;;;;;;5056177;28;20481;-80
2021/04/04 05:03:48;;;;;;;5.30;4.73;;;-0.20;99.90;;;;;;5056635;28;20962;-77
2021/04/04 05:06:18;;;;;;;8.80;5.20;;;-0.10;99.90;;;;;;5039739;28;20481;-77
2021/04/04 05:08:46;;;;;;;6.53;4.60;;;0.00;99.90;;;;;;5060176;28;20462;-78
2021/04/04 05:11:17;;;;;;;5.80;4.53;;;0.00;99.90;;;;;;5043795;28;20503;-77
2021/04/04 05:13:46;;;;;;;6.37;3.97;;;0.00;99.90;;;;;;5043802;28;20474;-78
2021/04/04 05:16:17;;;;;;;9.37;4.87;;;0.10;99.90;;;;;;5060928;28;20481;-78
2021/04/04 05:18:47;;;;;;;7.27;4.70;;;0.10;99.90;;;;;;5044677;28;20529;-77
2021/04/04 05:21:23;;;;;;;9.70;4.30;;;0.20;99.90;;;;;;5061226;28;20442;-77
2021/04/04 05:23:56;;;;;;;7.63;4.40;;;0.20;99.90;;;;;;5044983;28;20441;-77
2021/04/04 05:26:29;;;;;;;6.30;4.80;;;0.20;99.90;;;;;;5063060;28;20508;-80
2021/04/04 05:29:00;;;;;;;4.57;3.93;;;0.30;99.90;;;;;;5061206;28;20458;-77
2021/04/04 05:31:28;;;;;;;9.10;5.00;;;0.40;99.90;;;;;;5048905;28;20525;-78
2021/04/04 05:33:56;;;;;;;8.87;5.20;;;0.40;99.90;;;;;;5041895;28;20457;-77
2021/04/04 05:36:25;;;;;;;6.10;5.20;;;0.50;99.90;;;;;;5024875;28;20514;-78
2021/04/04 05:38:57;;;;;;;8.33;5.00;;;0.60;99.90;;;;;;5040885;28;20442;-77
2021/04/04 05:41:30;;;;;;;4.60;4.20;;;0.90;99.90;;;;;;5040443;28;20416;-78
2021/04/04 05:44:09;;;;;;;8.90;5.13;;;1.20;99.90;;;;;;5023847;28;20786;-76
2021/04/04 05:46:43;;;;;;;6.93;4.70;;;1.40;99.90;;;;;;5039750;28;20550;-76
2021/04/04 05:49:23;;;;;;;7.07;5.03;;;1.70;99.90;;;;;;5040488;28;20458;-76
2021/04/04 05:52:00;;;;;;;7.60;5.10;;;2.10;99.90;;;;;;5024573;28;20513;-76
2021/04/04 05:54:53;;;;;;;6.30;4.83;;;2.70;99.90;;;;;;5064249;28;20916;-76
2021/04/04 05:57:27;;;;;;;4.90;4.20;;;3.20;99.90;;;;;;5049162;28;20438;-77
2021/04/04 05:59:58;;;;;;;5.37;4.03;;;4.20;99.90;;;;;;5085184;28;20433;-79
2021/04/04 06:03:17;;;;;;;5.07;4.00;;;4.60;98.40;;;;;;5085864;28;20479;-75
2021/04/04 06:06:10;;;;;;;7.13;4.23;;;5.60;96.80;;;;;;5104238;28;20451;-76
2021/04/04 06:08:56;;;;;;;6.73;4.00;;;5.90;94.90;;;;;;5084960;28;20451;-75
2021/04/04 06:11:33;;;;;;;8.60;4.70;;;6.40;94.10;;;;;;5103324;28;20452;-77
2021/04/04 06:14:08;;;;;;;6.20;4.03;;;6.30;93.60;;;;;;5083618;28;20458;-75
2021/04/04 06:16:53;;;;;;;8.03;4.20;;;6.70;93.40;;;;;;5080772;28;20521;-75
2021/04/04 06:19:36;;;;;;;4.73;4.20;;;6.90;92.80;;;;;;5081778;28;20778;-79
2021/04/04 06:22:15;;;;;;;7.20;4.13;;;7.10;92.50;;;;;;5100106;28;20425;-78
2021/04/04 06:24:47;;;;;;;5.00;3.83;;;7.10;92.20;;;;;;5081165;28;20498;-75
2021/04/04 06:27:21;;;;;;;6.87;4.53;;;7.40;92.10;;;;;;5066295;28;20476;-76
2021/04/04 06:30:21;;;;;;;4.70;4.00;;;7.60;91.30;;;;;;5065607;28;20467;-76
2021/04/04 06:33:00;;;;;;;7.30;6.57;;;7.90;91.20;;;;;;5025846;28;20443;-76
2021/04/04 06:35:38;;;;;;;8.00;4.90;;;8.40;90.20;;;;;;5024919;28;20449;-76
2021/04/04 06:38:39;;;;;;;6.17;4.23;;;8.10;88.90;;;;;;5044812;28;20410;-79
2021/04/04 06:41:22;;;;;;;5.50;4.33;;;8.50;88.50;;;;;;5048357;28;20472;-77
2021/04/04 06:44:02;;;;;;;6.23;4.43;;;8.90;86.80;;;;;;5024010;28;21016;-77
2021/04/04 06:46:44;;;;;;;8.87;4.73;;;9.20;85.10;;;;;;5051697;28;20455;-76
2021/04/04 06:49:23;;;;;;;6.30;4.10;;;8.80;84.70;;;;;;5060718;28;20410;-74
2021/04/04 06:52:01;;;;;;;5.17;4.00;;;9.20;85.70;;;;;;5060639;28;20548;-75
2021/04/04 06:54:47;;;;;;;6.77;4.90;;;9.40;85.80;;;;;;5060568;28;20431;-77
2021/04/04 06:57:27;;;;;;;6.17;5.57;;;10.30;80.20;;;;;;5075341;22;20415;-63
2021/04/04 07:00:04;;;;;;;8.30;5.50;;;10.70;77.60;;;;;;5055680;28;20538;-64
2021/04/04 07:02:34;;;;;;;6.07;4.67;;;10.80;76.40;;;;;;5035067;28;20457;-64
2021/04/04 07:05:09;;;;;;;13.27;4.83;;;11.10;73.70;;;;;;5035834;28;20514;-63
2021/04/04 07:08:04;;;;;;;8.23;5.10;;;11.30;74.60;;;;;;5034387;28;20469;-64
2021/04/04 07:10:46;;;;;;;5.33;4.53;;;11.90;70.70;;;;;;5017991;28;21017;-64
2021/04/04 07:13:30;;;;;;;5.97;4.50;;;11.70;70.40;;;;;;5036496;28;20425;-64
2021/04/04 07:16:15;;;;;;;5.00;4.50;;;12.10;68.30;;;;;;5042211;28;20512;-63
2021/04/04 07:19:20;;;;;;;6.27;3.93;;;11.70;68.70;;;;;;5055929;28;20472;-65
2021/04/04 07:22:10;;;;;;;5.80;4.70;;;12.40;68.20;;;;;;5056128;28;20470;-65
2021/04/04 07:24:56;;;;;;;9.90;5.00;;;11.80;67.30;;;;;;5056282;28;20976;-64
2021/04/04 07:27:38;;;;;;;5.77;4.50;;;12.70;66.80;;;;;;5038226;28;20979;-65
2021/04/04 07:30:33;;;;;;;5.50;4.50;;;12.40;64.90;;;;;;5055505;28;20960;-64
2021/04/04 07:33:35;;;;;;;6.97;5.43;;;12.50;62.90;;;;;;5056754;28;20464;-64
2021/04/04 07:36:11;;;;;;;32.87;22.23;;;12.70;62.60;;;;;;5049663;28;20441;-64
2021/04/04 07:38:46;;;;;;;7.70;5.77;;;13.90;62.50;;;;;;5039042;28;20450;-67
2021/04/04 07:41:22;;;;;;;6.07;5.20;;;14.10;59.10;;;;;;5038391;28;20525;-63
2021/04/04 07:44:19;;;;;;;7.27;5.93;;;14.70;57.50;;;;;;5038657;28;20448;-64
2021/04/04 07:46:57;;;;;;;7.00;5.40;;;13.30;56.90;;;;;;5055479;28;20978;-64
2021/04/04 07:49:36;;;;;;;10.03;7.50;;;13.60;57.60;;;;;;5038807;28;20518;-65
2021/04/04 07:52:13;;;;;;;13.77;9.20;;;14.30;57.70;;;;;;5057605;28;20432;-63
2021/04/04 07:54:52;;;;;;;12.30;9.73;;;14.00;56.40;;;;;;5057072;28;20434;-64
2021/04/04 07:57:27;;;;;;;7.70;6.83;;;14.40;57.30;;;;;;5039672;28;20449;-65
2021/04/04 08:00:00;;;;;;;10.07;6.33;;;14.30;55.00;;;;;;5056062;28;20986;-66
2021/04/04 08:02:42;;;;;;;8.70;5.77;;;15.40;53.90;;;;;;5036074;28;20480;-65
2021/04/04 08:05:13;;;;;;;8.07;5.10;;;15.40;52.90;;;;;;5018575;28;20932;-68
2021/04/04 08:07:49;;;;;;;6.53;5.60;;;16.60;52.10;;;;;;5018907;28;20479;-64
2021/04/04 08:10:26;;;;;;;8.03;5.10;;;18.00;47.60;;;;;;5042861;28;20481;-65
2021/04/04 08:13:06;;;;;;;15.70;8.80;;;16.20;46.00;;;;;;5028959;28;20431;-66
2021/04/04 08:15:39;;;;;;;37.57;28.10;;;17.70;45.90;;;;;;5030906;28;20508;-65
2021/04/04 08:18:08;;;;;;;6.90;5.27;;;18.00;45.00;;;;;;5046593;28;20462;-64
2021/04/04 08:20:46;;;;;;;9.33;6.80;;;18.50;44.90;;;;;;5045979;28;20520;-65
2021/04/04 08:23:23;;;;;;;9.27;6.60;;;18.20;44.20;;;;;;5061691;28;20504;-64
2021/04/04 08:25:56;;;;;;;9.13;6.30;;;18.90;42.40;;;;;;5061562;28;20439;-65
2021/04/04 08:28:28;;;;;;;6.20;5.60;;;20.50;41.60;;;;;;5043127;28;20469;-65
2021/04/04 08:31:01;;;;;;;6.47;5.20;;;22.30;38.00;;;;;;5059734;28;20829;-64
2021/04/04 08:33:36;;;;;;;8.33;5.73;;;20.80;38.10;;;;;;5057989;28;20431;-64
2021/04/04 08:36:08;;;;;;;9.40;7.13;;;22.20;36.30;;;;;;5054985;28;20430;-64
2021/04/04 08:38:40;;;;;;;9.07;6.57;;;22.50;35.30;;;;;;5055054;28;20434;-64
2021/04/04 08:41:13;;;;;;;8.30;6.30;;;22.50;34.40;;;;;;5036901;28;20438;-65
2021/04/04 08:43:45;;;;;;;9.83;6.20;;;22.70;33.80;;;;;;5039944;28;20439;-66
2021/04/04 08:46:23;;;;;;;6.50;5.90;;;23.10;33.00;;;;;;5039033;28;20482;-65
2021/04/04 08:48:54;;;;;;;6.47;5.80;;;22.20;33.20;;;;;;5058791;28;20438;-64
2021/04/04 08:51:25;;;;;;;8.93;5.80;;;17.70;36.20;;;;;;5058357;28;20430;-65
2021/04/04 08:53:56;;;;;;;7.00;5.67;;;16.30;41.10;;;;;;5058497;28;20430;-65
2021/04/04 08:56:26;;;;;;;7.30;5.67;;;19.30;40.00;;;;;;5040217;28;20533;-64
2021/04/04 08:59:00;;;;;;;6.17;5.17;;;18.60;37.40;;;;;;5040187;28;20564;-65
2021/04/04 09:01:34;;;;;;;5.20;4.70;;;18.90;40.40;;;;;;5056958;28;20513;-65
2021/04/04 09:04:06;;;;;;;11.03;6.27;;;18.50;37.40;;;;;;5058456;28;20486;-65
2021/04/04 09:06:38;;;;;;;7.13;5.60;;;20.70;37.20;;;;;;5058845;28;20445;-64
2021/04/04 09:09:21;;;;;;;6.53;4.47;;;22.00;34.10;;;;;;5060660;28;20426;-65
2021/04/04 09:12:15;;;;;;;9.07;5.60;;;23.20;32.20;;;;;;5058754;28;20465;-65
2021/04/04 09:14:43;;;;;;;4.43;3.83;;;22.10;32.40;;;;;;5043727;28;20426;-65
2021/04/04 09:17:13;;;;;;;6.27;4.17;;;22.80;31.60;;;;;;5059772;28;20480;-66
2021/04/04 09:19:43;;;;;;;5.20;3.97;;;24.80;30.10;;;;;;5041032;28;20466;-68
2021/04/04 09:22:20;;;;;;;5.53;4.30;;;20.80;30.20;;;;;;5057903;28;20433;-66
2021/04/04 09:24:57;;;;;;;5.23;4.33;;;20.70;33.90;;;;;;5057638;28;20426;-65
2021/04/04 09:27:27;;;;;;;4.03;3.50;;;21.00;34.70;;;;;;5057895;28;20496;-66
2021/04/04 09:29:57;;;;;;;4.10;3.20;;;21.80;33.00;;;;;;5058525;28;20470;-66
2021/04/04 09:32:31;;;;;;;4.40;3.50;;;21.50;32.80;;;;;;5056722;28;20466;-68
2021/04/04 09:35:00;;;;;;;5.00;3.33;;;23.10;31.10;;;;;;5056843;28;20414;-66
2021/04/04 09:37:34;;;;;;;3.70;3.03;;;21.80;30.50;;;;;;5038599;28;20758;-65
2021/04/04 09:40:02;;;;;;;4.40;3.50;;;22.50;30.40;;;;;;5039186;28;20525;-64
2021/04/04 09:42:33;;;;;;;3.50;3.20;;;23.30;30.60;;;;;;5039311;28;20465;-65
2021/04/04 09:45:16;;;;;;;4.47;3.63;;;21.20;30.70;;;;;;5057113;28;20427;-65
2021/04/04 09:47:44;;;;;;;11.73;9.03;;;19.50;34.30;;;;;;5054982;28;20573;-65
2021/04/04 09:50:22;;;;;;;3.00;2.70;;;19.10;33.40;;;;;;5057131;28;20431;-65
2021/04/04 09:52:51;;;;;;;7.03;3.47;;;20.80;31.50;;;;;;5056904;28;20430;-65
2021/04/04 09:55:21;;;;;;;3.93;2.90;;;22.40;31.00;;;;;;5021757;28;20442;-68
2021/04/04 09:57:57;;;;;;;7.97;3.37;;;22.80;29.60;;;;;;5056881;28;20469;-67
2021/04/04 10:00:30;;;;;;;6.00;3.57;;;22.30;28.50;;;;;;5056393;28;20442;-64
2021/04/04 10:03:10;;;;;;;4.23;3.30;;;21.40;29.70;;;;;;5039903;28;20438;-68
2021/04/04 10:05:40;;;;;;;5.93;3.87;;;21.90;30.00;;;;;;5057244;28;20470;-64
2021/04/04 10:08:15;;;;;;;4.33;3.83;;;19.60;30.80;;;;;;5039501;28;20470;-65
2021/04/04 10:10:45;;;;;;;7.33;4.00;;;19.70;32.80;;;;;;5041884;28;20438;-65
2021/04/04 10:13:13;;;;;;;6.67;4.33;;;19.80;31.80;;;;;;5057995;28;20442;-66
2021/04/04 10:15:48;;;;;;;5.50;4.40;;;20.10;31.20;;;;;;5055989;28;20458;-62
2021/04/04 10:18:17;;;;;;;7.87;4.70;;;20.10;31.40;;;;;;5057674;28;20460;-64
2021/04/04 10:20:48;;;;;;;6.67;4.23;;;20.10;32.40;;;;;;5058616;28;20434;-64
2021/04/04 10:23:16;;;;;;;6.73;4.50;;;21.00;30.70;;;;;;5058435;28;20438;-67
2021/04/04 10:25:59;;;;;;;5.33;4.00;;;20.20;30.10;;;;;;5058096;28;20912;-65
2021/04/04 10:28:43;;;;;;;4.80;4.23;;;20.80;32.00;;;;;;5058847;28;20565;-69
2021/04/04 10:31:11;;;;;;;6.27;5.30;;;20.90;31.60;;;;;;5056650;28;20489;-65
2021/04/04 10:33:39;;;;;;;7.23;4.33;;;21.70;32.30;;;;;;5058418;28;20477;-64
2021/04/04 10:36:25;;;;;;;5.80;4.03;;;20.50;30.20;;;;;;5039889;28;20458;-64
2021/04/04 10:38:53;;;;;;;5.63;4.70;;;19.40;32.80;;;;;;5058050;28;20454;-66
2021/04/04 10:41:28;;;;;;;8.17;4.43;;;20.80;32.80;;;;;;5039812;28;20426;-64
2021/04/04 10:43:56;;;;;;;7.50;5.30;;;19.60;34.40;;;;;;5056325;28;20438;-64
2021/04/04 10:46:27;;;;;;;5.87;4.00;;;17.20;35.70;;;;;;5039299;28;20474;-67
2021/04/04 10:48:58;;;;;;;6.03;3.90;;;16.30;37.30;;;;;;5056897;28;20465;-65
2021/04/04 10:51:29;;;;;;;6.90;4.63;;;17.80;37.00;;;;;;5038997;28;20514;-64
2021/04/04 10:53:59;;;;;;;8.30;4.60;;;17.30;36.00;;;;;;5057136;28;20438;-64
2021/04/04 10:56:29;;;;;;;7.60;4.77;;;17.20;37.20;;;;;;5057109;28;20453;-64
2021/04/04 10:59:00;;;;;;;5.10;4.60;;;16.50;36.80;;;;;;5056433;28;20513;-64
2021/04/04 11:01:32;;;;;;;7.23;5.50;;;16.60;37.40;;;;;;5055792;28;20489;-64
2021/04/04 11:04:00;;;;;;;4.63;3.67;;;17.90;37.10;;;;;;5056452;28;20528;-64
2021/04/04 11:06:29;;;;;;;6.33;4.90;;;17.60;35.90;;;;;;5056437;28;20422;-64
2021/04/04 11:08:56;;;;;;;9.53;5.10;;;18.00;36.30;;;;;;5057266;28;20478;-64
2021/04/04 11:11:25;;;;;;;9.20;4.87;;;17.50;37.90;;;;;;5056976;28;20438;-64
2021/04/04 11:13:55;;;;;;;5.07;4.40;;;17.10;38.70;;;;;;5056707;28;20454;-64
2021/04/04 11:16:27;;;;;;;6.30;4.83;;;17.90;39.70;;;;;;5056336;28;20470;-65
2021/04/04 11:18:58;;;;;;;5.60;4.37;;;16.20;39.10;;;;;;5057184;28;20431;-64
2021/04/04 11:21:31;;;;;;;6.20;5.07;;;15.90;40.00;;;;;;5038879;28;20533;-63
2021/04/04 11:23:59;;;;;;;6.83;4.67;;;15.00;41.80;;;;;;5039232;28;20442;-65
2021/04/04 11:26:31;;;;;;;21.10;14.93;;;14.10;42.00;;;;;;5056880;28;20466;-64
2021/04/04 11:29:12;;;;;;;6.83;4.27;;;14.30;43.60;;;;;;5038601;28;20477;-65
2021/04/04 11:31:41;;;;;;;6.53;4.60;;;13.30;44.00;;;;;;5056529;28;20473;-64
2021/04/04 11:34:34;;;;;;;6.50;5.00;;;15.00;43.70;;;;;;5040625;28;20428;-64
2021/04/04 11:37:04;;;;;;;5.90;3.83;;;17.40;38.80;;;;;;5044593;28;20859;-63
2021/04/04 11:39:33;;;;;;;5.07;4.33;;;19.40;36.40;;;;;;5039811;28;20427;-65
2021/04/04 11:42:04;;;;;;;7.23;4.20;;;17.50;35.00;;;;;;5058236;28;20457;-63
2021/04/04 11:44:56;;;;;;;6.13;4.17;;;17.80;37.20;;;;;;5057178;28;20430;-64
2021/04/04 11:47:24;;;;;;;7.33;4.20;;;17.50;36.20;;;;;;5056171;28;20545;-65
2021/04/04 11:49:54;;;;;;;5.60;3.73;;;16.80;37.90;;;;;;5057101;28;20465;-64
2021/04/04 11:52:38;;;;;;;5.40;4.07;;;18.10;37.00;;;;;;5059052;28;20957;-65
2021/04/04 11:55:08;;;;;;;6.77;3.60;;;17.30;37.90;;;;;;5058008;28;20466;-64
2021/04/04 11:57:39;;;;;;;4.60;3.87;;;17.60;38.20;;;;;;5039597;28;20466;-65
2021/04/04 12:00:11;;;;;;;5.47;4.97;;;17.10;37.40;;;;;;5057140;28;20838;-64
2021/04/04 12:02:46;;;;;;;6.70;4.30;;;16.80;38.80;;;;;;5040714;28;20482;-64
2021/04/04 12:05:15;;;;;;;6.13;4.13;;;16.60;39.70;;;;;;5041751;28;20463;-64
2021/04/04 12:07:44;;;;;;;5.57;4.70;;;16.50;39.50;;;;;;5056395;28;20552;-64
2021/04/04 12:10:13;;;;;;;5.33;3.50;;;16.50;39.30;;;;;;5055537;28;20442;-67
2021/04/04 12:12:42;;;;;;;5.67;3.83;;;16.00;39.60;;;;;;5059129;28;20906;-64
2021/04/04 12:15:11;;;;;;;8.87;3.80;;;16.00;39.20;;;;;;5055173;28;20525;-65
2021/04/04 12:17:44;;;;;;;8.30;4.43;;;16.40;39.90;;;;;;5054512;28;20976;-67
2021/04/04 12:20:12;;;;;;;6.50;4.10;;;17.70;38.40;;;;;;5056567;28;20434;-65
2021/04/04 12:22:42;;;;;;;5.10;4.10;;;17.50;37.10;;;;;;5038255;28;20430;-64
2021/04/04 12:25:13;;;;;;;7.33;3.60;;;17.50;38.20;;;;;;5055031;28;21000;-65
2021/04/04 12:27:42;;;;;;;7.23;4.87;;;17.80;37.40;;;;;;5054841;28;20454;-64
2021/04/04 12:30:21;;;;;;;6.00;4.13;;;17.60;35.40;;;;;;5036900;28;20449;-63
2021/04/04 12:32:59;;;;;;;7.50;4.50;;;17.00;36.90;;;;;;5056122;28;20441;-64
2021/04/04 12:35:27;;;;;;;6.60;3.43;;;16.70;37.90;;;;;;5038274;28;20488;-64
2021/04/04 12:37:55;;;;;;;7.53;4.27;;;16.60;39.00;;;;;;5055126;28;20432;-67
2021/04/04 12:40:25;;;;;;;5.30;4.03;;;16.50;40.10;;;;;;5055743;28;20439;-64
2021/04/04 12:42:57;;;;;;;6.70;4.60;;;16.20;40.80;;;;;;5055274;28;20437;-64
2021/04/04 12:45:26;;;;;;;6.97;4.37;;;15.70;41.40;;;;;;5036343;28;20450;-63
2021/04/04 12:47:53;;;;;;;6.13;5.13;;;15.60;41.70;;;;;;5055227;28;20553;-64
2021/04/04 12:50:24;;;;;;;5.67;4.53;;;15.00;42.80;;;;;;5055636;28;20437;-64
2021/04/04 12:52:53;;;;;;;5.90;5.20;;;15.90;42.70;;;;;;5053833;28;20429;-64
2021/04/04 12:55:24;;;;;;;5.10;4.40;;;15.60;42.60;;;;;;5055530;28;20449;-64
2021/04/04 12:57:59;;;;;;;4.93;4.03;;;14.50;43.90;;;;;;5054659;28;20485;-63
2021/04/04 13:00:28;;;;;;;6.40;4.40;;;13.60;45.50;;;;;;5054167;28;20444;-64
2021/04/04 13:03:05;;;;;;;8.50;6.07;;;13.70;45.90;;;;;;5055720;28;20826;-65
2021/04/04 13:05:35;;;;;;;6.30;4.47;;;14.00;46.30;;;;;;5055526;28;20439;-64
2021/04/04 13:08:13;;;;;;;14.30;11.83;;;14.20;45.60;;;;;;5056002;28;20462;-63
2021/04/04 13:10:43;;;;;;;12.50;7.03;;;14.30;45.70;;;;;;5054542;28;20456;-64
2021/04/04 13:13:17;;;;;;;6.23;4.03;;;14.50;44.80;;;;;;5036181;28;20852;-62
2021/04/04 13:15:46;;;;;;;7.60;4.17;;;15.90;42.60;;;;;;5053244;28;20553;-63
2021/04/04 13:18:24;;;;;;;5.47;4.20;;;17.10;40.20;;;;;;5035818;28;20446;-63
2021/04/04 13:20:55;;;;;;;5.30;4.17;;;16.50;39.70;;;;;;5054377;28;20824;-64
2021/04/04 13:23:25;;;;;;;4.70;3.93;;;16.30;40.60;;;;;;5053975;28;20774;-64
2021/04/04 13:25:54;;;;;;;5.17;4.60;;;14.70;41.30;;;;;;5053966;28;20849;-63
2021/04/04 13:28:31;;;;;;;7.20;4.57;;;13.50;44.80;;;;;;5055672;28;20462;-64
2021/04/04 13:31:22;;;;;;;7.27;5.87;;;13.80;46.30;;;;;;5056591;28;20481;-64